Time;durP1;ratioP1;P1;durP2;ratioP2;P2;SDS_P1;SDS_P2;PMS_P1;PMS_P2;Temp;Humidity;BMP_temperature;BMP_pressure;BME280_temperature;BME280_humidity;BME280_pressure;Samples;Min_cycle;Max_cycle;Signal;HPM_P1;HPM_P2
2022/11/04 00:03:54;;;;;;;19.60;9.30;;;;;;;8.23;71.91;99346.52;210098;1296;140960;-64
2022/11/04 00:08:58;;;;;;;13.00;7.90;;;;;;;8.25;71.95;99338.63;209937;1299;139614;-67
2022/11/04 00:14:03;;;;;;;13.40;7.60;;;;;;;8.28;71.88;99335.77;210035;1301;140301;-63
2022/11/04 00:19:06;;;;;;;15.30;9.50;;;;;;;8.32;72.01;99332.08;210052;1296;140415;-67
2022/11/04 00:29:34;;;;;;;17.50;8.40;;;;;;;8.38;72.17;99314.91;210165;1285;139716;-67
2022/11/04 00:34:38;;;;;;;12.40;8.80;;;;;;;8.39;72.15;99313.30;210222;1296;141145;-66
2022/11/04 00:39:41;;;;;;;15.50;9.70;;;;;;;8.40;72.09;99310.88;210286;1302;140978;-67
2022/11/04 00:44:45;;;;;;;14.20;8.10;;;;;;;8.36;72.28;99298.73;210172;1296;140604;-67
2022/11/04 00:49:48;;;;;;;17.80;11.10;;;;;;;8.38;72.35;99296.95;209955;1297;139868;-67
2022/11/04 00:54:52;;;;;;;12.10;9.90;;;;;;;8.37;72.59;99294.66;209777;1287;141203;-68
2022/11/04 00:59:55;;;;;;;15.70;8.80;;;;;;;8.40;72.49;99287.55;210030;1283;139894;-66
2022/11/04 01:05:00;;;;;;;17.60;9.00;;;;;;;8.41;72.43;99282.14;210232;1279;140568;-67
2022/11/04 01:10:05;;;;;;;23.60;10.70;;;;;;;8.40;72.46;99282.72;210301;1292;139710;-67
2022/11/04 01:15:09;;;;;;;15.70;9.60;;;;;;;8.40;72.95;99279.27;210259;1296;143151;-68
2022/11/04 01:20:13;;;;;;;11.90;9.20;;;;;;;8.40;72.72;99275.70;210204;1295;141765;-66
2022/11/04 01:25:17;;;;;;;25.00;12.40;;;;;;;8.39;72.80;99272.17;210275;1284;141326;-66
2022/11/04 01:30:21;;;;;;;19.60;9.50;;;;;;;8.41;72.90;99268.77;210448;1297;141327;-66
2022/11/04 01:35:25;;;;;;;13.30;8.90;;;;;;;8.43;72.74;99262.33;210028;1289;142293;-66
2022/11/04 01:40:29;;;;;;;21.90;9.50;;;;;;;8.44;72.98;99264.64;210398;1299;140477;-66
2022/11/04 01:45:33;;;;;;;17.50;10.80;;;;;;;8.42;72.84;99252.05;210173;1296;140805;-66
2022/11/04 01:50:37;;;;;;;24.10;10.30;;;;;;;8.40;72.87;99247.07;210253;1279;141638;-66
2022/11/04 01:55:46;;;;;;;16.20;11.00;;;;;;;8.37;73.21;99238.45;210123;1295;141034;-68
2022/11/04 02:00:50;;;;;;;11.20;8.20;;;;;;;8.34;73.13;99224.31;210278;1303;249289;-66
2022/11/04 02:05:54;;;;;;;15.70;9.40;;;;;;;8.35;73.30;99220.14;209852;1289;140935;-68
2022/11/04 02:10:59;;;;;;;18.60;10.20;;;;;;;8.37;73.33;99216.80;210159;1296;140780;-68
2022/11/04 02:16:32;;;;;;;25.00;10.70;;;;;;;8.40;73.44;99213.35;209964;1295;140584;-69
2022/11/04 02:21:52;;;;;;;16.20;9.60;;;;;;;8.40;73.25;99209.73;209995;1295;153292;-69
2022/11/04 02:27:42;;;;;;;15.60;9.40;;;;;;;8.35;73.52;99206.53;210289;1295;140188;-67
2022/11/04 02:33:19;;;;;;;14.90;8.90;;;;;;;8.30;73.68;99189.67;209939;1296;140027;-68
2022/11/04 02:38:34;;;;;;;14.30;10.90;;;;;;;8.29;73.87;99175.05;210226;1304;227218;-68
2022/11/04 02:43:41;;;;;;;18.50;11.90;;;;;;;8.26;73.75;99166.27;210320;1287;140460;-67
2022/11/04 02:48:53;;;;;;;18.70;10.30;;;;;;;8.29;73.97;99159.95;209911;1297;140603;-68
2022/11/04 02:54:03;;;;;;;17.00;10.10;;;;;;;8.28;74.13;99147.08;210463;1297;139609;-67
2022/11/04 02:59:14;;;;;;;16.70;10.70;;;;;;;8.29;74.15;99141.26;210818;1287;150388;-65
2022/11/04 03:04:25;;;;;;;17.20;9.30;;;;;;;8.34;74.22;99142.66;210074;1295;139759;-65
2022/11/04 03:09:29;;;;;;;14.90;9.90;;;;;;;8.34;74.36;99138.64;209580;1298;139789;-65
2022/11/04 03:14:41;;;;;;;14.40;9.40;;;;;;;8.39;74.48;99141.94;209970;1290;140778;-66
2022/11/04 03:20:02;;;;;;;15.10;10.90;;;;;;;8.50;74.31;99139.34;210016;1299;140007;-65
2022/11/04 03:25:08;;;;;;;13.10;10.50;;;;;;;8.50;74.25;99143.48;210314;1296;140275;-66
2022/11/04 03:30:17;;;;;;;16.90;10.40;;;;;;;8.46;74.55;99132.41;210027;1289;141025;-66
2022/11/04 03:35:20;;;;;;;12.30;9.30;;;;;;;8.46;74.49;99129.42;210054;1284;141080;-67
2022/11/04 03:40:25;;;;;;;14.80;11.10;;;;;;;8.42;74.61;99125.05;210525;1289;140227;-67
2022/11/04 03:45:28;;;;;;;12.40;10.40;;;;;;;8.45;74.62;99128.19;210272;1289;140296;-68
2022/11/04 03:50:53;;;;;;;24.80;12.90;;;;;;;8.44;74.64;99129.44;210090;1290;140025;-68
2022/11/04 03:56:25;;;;;;;15.20;10.70;;;;;;;8.39;74.71;99132.63;210161;1296;140567;-67
2022/11/04 04:01:50;;;;;;;14.70;9.00;;;;;;;8.41;74.85;99125.20;210485;1303;141295;-68
2022/11/04 04:07:03;;;;;;;15.00;11.60;;;;;;;8.37;75.02;99126.91;210304;1297;141637;-66
2022/11/04 04:12:19;;;;;;;17.70;10.20;;;;;;;8.37;75.13;99119.05;209866;1297;140042;-66
2022/11/04 04:17:46;;;;;;;19.00;12.00;;;;;;;8.36;75.14;99112.50;209996;1296;140109;-66
2022/11/04 04:27:29;;;;;;;17.10;10.00;;;;;;;8.35;75.22;99110.45;210076;1287;140587;-66
2022/11/04 04:28:29;;;;;;;19.90;12.40;;;;;;;8.36;75.40;99109.11;210287;1287;222367;-67
2022/11/04 04:33:32;;;;;;;15.10;10.80;;;;;;;8.37;75.44;99104.23;210198;1287;139946;-67
2022/11/04 04:49:35;;;;;;;17.90;9.90;;;;;;;8.50;75.51;99099.65;210100;1296;140896;-66
2022/11/04 04:54:39;;;;;;;13.10;9.20;;;;;;;8.51;75.57;99092.08;210173;1296;140421;-66
2022/11/04 04:59:43;;;;;;;28.10;11.90;;;;;;;8.50;75.46;99096.95;210044;1303;141522;-65
2022/11/04 05:04:46;;;;;;;16.60;11.10;;;;;;;8.46;75.61;99100.75;210078;1289;141563;-68
2022/11/04 05:09:50;;;;;;;16.20;10.10;;;;;;;8.44;75.90;99098.86;210393;1289;139795;-66
2022/11/04 05:14:53;;;;;;;20.40;12.00;;;;;;;8.44;75.89;99089.30;210574;1296;140215;-67
2022/11/04 05:19:57;;;;;;;22.30;12.10;;;;;;;8.44;75.94;99077.98;210211;1287;141427;-67
2022/11/04 05:25:01;;;;;;;12.90;10.30;;;;;;;8.47;76.18;99072.61;209894;1295;140544;-68
2022/11/04 05:30:05;;;;;;;18.00;12.70;;;;;;;8.50;76.37;99072.63;210310;1290;140441;-68
2022/11/04 05:35:09;;;;;;;12.30;9.50;;;;;;;8.58;76.09;99069.09;210856;1287;141257;-69
2022/11/04 05:40:13;;;;;;;18.10;11.60;;;;;;;8.62;76.21;99071.59;210162;1287;139718;-68
2022/11/04 05:45:17;;;;;;;16.60;11.00;;;;;;;8.61;76.16;99069.61;209957;1295;142411;-67
2022/11/04 05:50:21;;;;;;;15.40;10.60;;;;;;;8.59;76.09;99067.81;210093;1287;141980;-65
2022/11/04 05:55:26;;;;;;;17.80;11.40;;;;;;;8.54;76.23;99078.23;210210;1303;140094;-66
2022/11/04 06:00:30;;;;;;;23.00;12.70;;;;;;;8.55;76.46;99080.63;210612;1296;139969;-65
2022/11/04 06:05:34;;;;;;;23.60;11.00;;;;;;;8.53;76.54;99076.91;210330;1280;140432;-66
2022/11/04 06:10:38;;;;;;;15.10;9.20;;;;;;;8.52;76.50;99078.02;210042;1295;140130;-66
2022/11/04 06:15:42;;;;;;;19.00;12.40;;;;;;;8.53;76.80;99081.08;210316;1280;140680;-67
2022/11/04 06:20:46;;;;;;;17.80;13.10;;;;;;;8.59;76.69;99081.55;210232;1288;141385;-65
2022/11/04 06:25:52;;;;;;;16.40;10.40;;;;;;;8.64;76.76;99086.20;209725;1303;382490;-65
2022/11/04 06:30:57;;;;;;;14.70;11.40;;;;;;;8.66;77.01;99085.34;210426;1297;143287;-65
2022/11/04 06:36:04;;;;;;;25.70;12.80;;;;;;;8.72;76.82;99086.25;210414;1295;141351;-66
2022/11/04 06:41:13;;;;;;;18.00;11.00;;;;;;;8.74;76.87;99075.00;210358;1297;141182;-68
2022/11/04 06:46:41;;;;;;;23.70;12.80;;;;;;;8.70;76.83;99073.57;210201;1297;141454;-68
2022/11/04 06:51:47;;;;;;;14.30;10.40;;;;;;;8.74;76.81;99059.98;210107;1289;141059;-68
2022/11/04 06:56:51;;;;;;;14.90;9.20;;;;;;;8.75;76.76;99061.48;210020;1289;140757;-68
2022/11/04 07:01:56;;;;;;;17.60;12.70;;;;;;;8.77;76.95;99063.08;210450;1273;139905;-67
2022/11/04 07:07:01;;;;;;;20.10;10.90;;;;;;;8.83;77.00;99061.84;210596;1297;140106;-68
2022/11/04 07:12:05;;;;;;;23.20;11.90;;;;;;;8.82;76.64;99062.04;210055;1293;141110;-68
2022/11/04 07:17:09;;;;;;;16.70;10.90;;;;;;;8.83;76.75;99057.16;210203;1303;141284;-68
2022/11/04 07:22:13;;;;;;;19.90;12.20;;;;;;;8.84;76.90;99059.54;210051;1296;143188;-68
2022/11/04 07:27:16;;;;;;;13.10;11.10;;;;;;;8.86;76.85;99056.41;210029;1297;140173;-68
2022/11/04 07:32:20;;;;;;;18.30;11.80;;;;;;;8.91;76.92;99052.98;210143;1295;141091;-69
2022/11/04 07:37:24;;;;;;;24.80;13.50;;;;;;;8.94;76.84;99044.69;210550;1295;139853;-68
2022/11/04 07:42:28;;;;;;;18.90;12.10;;;;;;;9.00;76.92;99040.70;210741;1287;141618;-69
2022/11/04 07:47:32;;;;;;;18.50;12.20;;;;;;;9.09;76.81;99044.37;210267;1301;140577;-69
2022/11/04 07:52:35;;;;;;;25.70;14.70;;;;;;;9.16;76.86;99050.64;210239;1295;140402;-66
2022/11/04 07:57:42;;;;;;;21.00;12.80;;;;;;;9.21;76.65;99046.81;209878;1295;141511;-67
2022/11/04 08:02:46;;;;;;;14.60;8.80;;;;;;;9.23;76.67;99039.02;210043;1294;142608;-67
2022/11/04 08:07:52;;;;;;;21.20;12.60;;;;;;;9.23;76.59;99034.29;210417;1289;161139;-67
2022/11/04 08:12:56;;;;;;;19.40;12.20;;;;;;;9.22;76.63;99027.14;210585;1297;141348;-66
2022/11/04 08:17:59;;;;;;;18.60;13.40;;;;;;;9.21;76.63;99023.14;209617;1295;140774;-67
2022/11/04 08:23:03;;;;;;;19.00;12.20;;;;;;;9.20;76.61;99021.01;210419;1287;142213;-66
2022/11/04 08:28:07;;;;;;;21.40;13.20;;;;;;;9.27;76.71;99013.98;210380;1287;140067;-65
2022/11/04 08:33:11;;;;;;;20.90;12.10;;;;;;;9.33;76.64;99011.37;210531;1303;142074;-66
2022/11/04 08:38:14;;;;;;;16.40;11.00;;;;;;;9.38;76.78;99007.89;209892;1296;140350;-68
2022/11/04 08:43:18;;;;;;;18.20;12.80;;;;;;;9.39;76.48;99006.19;210556;1295;140662;-67
2022/11/04 08:48:22;;;;;;;18.20;12.00;;;;;;;9.37;76.77;99011.06;210076;1296;141122;-67
2022/11/04 08:53:26;;;;;;;24.20;12.60;;;;;;;9.41;76.61;99010.05;210138;1296;142698;-68
2022/11/04 08:58:30;;;;;;;18.20;11.40;;;;;;;9.44;76.86;99017.50;210442;1295;141380;-69
2022/11/04 09:03:37;;;;;;;19.60;10.60;;;;;;;9.43;76.53;99015.94;210573;1296;142651;-68
2022/11/04 09:08:42;;;;;;;19.70;11.10;;;;;;;9.41;76.58;99016.49;210350;1286;142049;-67
2022/11/04 09:13:46;;;;;;;25.90;15.70;;;;;;;9.37;76.64;99018.40;209845;1294;142445;-68
2022/11/04 09:18:50;;;;;;;23.20;13.80;;;;;;;9.38;76.92;99018.25;210108;1294;141295;-69
2022/11/04 09:23:54;;;;;;;15.80;10.50;;;;;;;9.47;76.74;99010.92;210004;1295;140278;-69
2022/11/04 09:28:58;;;;;;;14.40;10.70;;;;;;;9.49;76.72;99001.69;210210;1294;139480;-68
2022/11/04 09:34:02;;;;;;;18.10;11.50;;;;;;;9.54;76.84;98988.25;210121;1295;139755;-66
2022/11/04 09:39:06;;;;;;;27.70;15.00;;;;;;;9.67;76.85;98983.20;210054;1287;223346;-67
2022/11/04 09:44:27;;;;;;;18.80;11.90;;;;;;;9.75;76.81;98988.48;209878;1302;141162;-68
2022/11/04 09:49:36;;;;;;;28.70;15.40;;;;;;;9.91;76.76;98977.48;209893;1297;140465;-68
2022/11/04 09:55:14;;;;;;;17.20;12.70;;;;;;;10.12;76.71;98973.51;210185;1290;225468;-67
2022/11/04 10:00:19;;;;;;;18.10;11.50;;;;;;;10.19;76.31;98969.80;210101;1297;152195;-65
2022/11/04 10:05:51;;;;;;;20.30;12.40;;;;;;;10.26;76.25;98966.66;210124;1297;141043;-66
2022/11/04 10:11:20;;;;;;;17.60;11.10;;;;;;;10.32;76.22;98967.89;210172;1295;140519;-63
2022/11/04 10:16:46;;;;;;;14.90;11.10;;;;;;;10.43;76.11;98969.48;209950;1294;245689;-64
2022/11/04 10:22:30;;;;;;;23.20;12.10;;;;;;;10.60;75.90;98967.30;209960;1295;141546;-67
2022/11/04 10:27:37;;;;;;;19.90;12.20;;;;;;;10.70;75.67;98967.59;209952;1298;222741;-65
2022/11/04 10:33:09;;;;;;;22.30;13.20;;;;;;;10.83;75.75;98962.84;210037;1296;140291;-65
2022/11/04 10:38:28;;;;;;;11.70;9.30;;;;;;;11.10;75.80;98956.36;210090;1295;140851;-67
2022/11/04 10:43:36;;;;;;;19.10;10.30;;;;;;;11.34;75.58;98950.54;210041;1295;140089;-65
2022/11/04 10:48:55;;;;;;;15.40;12.30;;;;;;;11.35;74.67;98953.36;209828;1295;140727;-66
2022/11/04 10:54:00;;;;;;;15.50;11.40;;;;;;;11.31;74.43;98953.30;209961;1288;141374;-65
2022/11/04 10:59:26;;;;;;;24.60;12.70;;;;;;;11.20;74.39;98950.46;210074;1293;140922;-64
2022/11/04 11:04:32;;;;;;;17.30;9.70;;;;;;;11.18;74.34;98937.33;209896;1301;237660;-63
2022/11/04 11:09:48;;;;;;;16.30;10.20;;;;;;;11.13;74.08;98931.58;210132;1292;139762;-62
2022/11/04 11:14:56;;;;;;;20.00;10.30;;;;;;;11.05;73.97;98929.60;209898;1295;141373;-62
2022/11/04 11:20:22;;;;;;;20.00;11.30;;;;;;;11.01;74.03;98931.46;210024;1301;140580;-66
2022/11/04 11:25:27;;;;;;;13.10;9.60;;;;;;;10.94;73.82;98929.60;210103;1301;140201;-66
2022/11/04 11:30:35;;;;;;;18.60;11.60;;;;;;;10.93;73.83;98917.23;210048;1287;151576;-65
2022/11/04 11:35:50;;;;;;;19.40;11.90;;;;;;;10.88;73.74;98910.52;209970;1295;140387;-66
2022/11/04 11:41:10;;;;;;;13.60;9.00;;;;;;;10.89;74.02;98907.54;210230;1296;139707;-65
2022/11/04 11:46:31;;;;;;;18.20;11.50;;;;;;;10.92;74.02;98912.69;209950;1300;142538;-64
2022/11/04 11:51:37;;;;;;;17.60;11.90;;;;;;;10.93;74.02;98910.88;209949;1296;161827;-63
2022/11/04 11:56:44;;;;;;;19.20;11.60;;;;;;;10.99;73.97;98907.29;209866;1296;141389;-63
2022/11/04 12:02:34;;;;;;;20.00;13.60;;;;;;;11.06;74.03;98901.88;210175;1299;141197;-63
2022/11/04 12:08:08;;;;;;;17.90;12.10;;;;;;;11.06;73.86;98898.84;210392;1297;139958;-63
2022/11/04 12:13:49;;;;;;;16.00;11.60;;;;;;;11.05;74.06;98895.67;209818;1293;141027;-64
2022/11/04 12:19:14;;;;;;;15.90;10.20;;;;;;;11.03;74.05;98890.23;210091;1297;140185;-63
2022/11/04 12:24:56;;;;;;;17.90;11.00;;;;;;;11.05;74.06;98888.42;210099;1298;151446;-63
2022/11/04 12:30:06;;;;;;;17.50;11.50;;;;;;;11.09;74.21;98887.81;210156;1303;140532;-63
2022/11/04 12:35:30;;;;;;;18.30;12.60;;;;;;;11.19;74.21;98891.45;210209;1295;140904;-63
2022/11/04 12:41:07;;;;;;;10.30;9.20;;;;;;;11.29;74.14;98883.67;210003;1295;141456;-66
2022/11/04 12:46:45;;;;;;;19.80;10.40;;;;;;;11.36;74.23;98878.92;209540;1295;221404;-63
2022/11/04 12:52:24;;;;;;;15.40;8.90;;;;;;;11.45;74.20;98886.33;209933;1300;140298;-62
2022/11/04 12:58:05;;;;;;;15.70;8.50;;;;;;;11.51;73.85;98884.77;209956;1296;249025;-63
2022/11/04 13:03:31;;;;;;;20.00;12.20;;;;;;;11.64;74.01;98887.52;210192;1299;140507;-62
2022/11/04 13:08:58;;;;;;;17.30;11.80;;;;;;;11.79;73.92;98879.06;209951;1286;140794;-62
2022/11/04 13:14:09;;;;;;;22.00;14.00;;;;;;;11.95;73.87;98871.34;210099;1297;140780;-62
2022/11/04 13:19:42;;;;;;;17.40;11.20;;;;;;;12.12;73.80;98870.69;209791;1302;140695;-66
2022/11/04 13:25:14;;;;;;;11.40;10.00;;;;;;;12.27;73.33;98874.31;209661;1295;141648;-66
2022/11/04 13:30:43;;;;;;;15.20;11.20;;;;;;;12.27;73.28;98870.79;209907;1287;221798;-66
2022/11/04 13:36:15;;;;;;;17.50;10.90;;;;;;;12.22;73.22;98870.96;209997;1288;140022;-66
2022/11/04 13:41:23;;;;;;;15.50;10.60;;;;;;;12.19;73.30;98873.16;210047;1303;140685;-66
2022/11/04 13:46:33;;;;;;;17.20;10.60;;;;;;;12.09;73.03;98870.25;210148;1301;140502;-66
2022/11/04 13:51:46;;;;;;;19.30;10.40;;;;;;;11.98;73.16;98872.89;209794;1294;140500;-67
2022/11/04 13:57:11;;;;;;;18.40;10.10;;;;;;;11.91;73.29;98869.05;210059;1302;140378;-66
2022/11/04 14:02:19;;;;;;;14.40;8.80;;;;;;;11.86;73.36;98870.27;210028;1286;141496;-66
2022/11/04 14:08:02;;;;;;;15.10;10.60;;;;;;;11.80;73.44;98873.73;210129;1288;140596;-66
2022/11/04 14:13:25;;;;;;;22.20;11.90;;;;;;;11.77;73.36;98876.59;210111;1296;141626;-66
2022/11/04 14:18:32;;;;;;;15.30;9.80;;;;;;;11.69;73.41;98880.65;210017;1293;141436;-66
2022/11/04 14:23:40;;;;;;;12.40;9.90;;;;;;;11.63;73.29;98887.15;209944;1300;139845;-67
2022/11/04 14:28:59;;;;;;;17.10;10.20;;;;;;;11.60;73.55;98890.25;210122;1296;140202;-66
2022/11/04 14:34:06;;;;;;;15.10;10.00;;;;;;;11.56;73.55;98888.14;210112;1296;140809;-67
2022/11/04 14:39:09;;;;;;;13.70;8.70;;;;;;;11.58;73.59;98894.14;209944;1298;140133;-66
2022/11/04 14:44:37;;;;;;;21.60;13.20;;;;;;;11.60;73.72;98894.14;210012;1287;140988;-69
2022/11/04 14:49:50;;;;;;;18.70;11.10;;;;;;;11.57;73.51;98894.52;210106;1303;140170;-66
2022/11/04 14:55:28;;;;;;;13.40;9.60;;;;;;;11.54;73.52;98899.52;210101;1288;140057;-65
2022/11/04 15:00:53;;;;;;;19.60;11.80;;;;;;;11.50;73.56;98902.27;210011;1296;141535;-67
2022/11/04 15:06:02;;;;;;;21.90;11.50;;;;;;;11.48;73.63;98902.47;209947;1295;140142;-67
2022/11/04 15:12:49;;;;;;;17.30;10.70;;;;;;;11.49;73.70;98907.02;209883;1290;140307;-68
2022/11/04 15:16:47;;;;;;;17.00;10.10;;;;;;;11.52;73.86;98904.67;210168;1295;236795;-67
2022/11/04 15:21:57;;;;;;;15.00;9.80;;;;;;;11.57;73.92;98907.00;209961;1297;140933;-64
2022/11/04 15:27:05;;;;;;;18.20;11.20;;;;;;;11.58;73.95;98905.30;209827;1298;141299;-65
2022/11/04 15:32:18;;;;;;;16.70;11.40;;;;;;;11.59;73.99;98903.33;210264;1287;141031;-66
2022/11/04 15:37:25;;;;;;;17.60;12.10;;;;;;;11.64;74.19;98901.72;210006;1302;142470;-64
2022/11/04 15:42:38;;;;;;;18.30;11.30;;;;;;;11.67;74.32;98897.24;209217;1295;140153;-66
2022/11/04 15:47:43;;;;;;;18.10;11.00;;;;;;;11.66;74.32;98897.98;209053;1295;139905;-66
2022/11/04 15:52:53;;;;;;;16.80;13.10;;;;;;;11.63;74.02;98895.95;210255;1295;141784;-68
2022/11/04 15:57:58;;;;;;;17.30;11.90;;;;;;;11.61;73.95;98890.30;210060;1295;141911;-67
2022/11/04 16:03:03;;;;;;;24.60;12.90;;;;;;;11.56;74.05;98885.95;209976;1296;141591;-65
2022/11/04 16:08:34;;;;;;;18.10;11.00;;;;;;;11.53;74.20;98884.19;210030;1293;139972;-66
2022/11/04 16:13:40;;;;;;;21.30;11.40;;;;;;;11.54;74.35;98890.48;209880;1297;141489;-65
2022/11/04 16:18:50;;;;;;;22.80;14.50;;;;;;;11.52;74.23;98893.09;210154;1287;140922;-65
2022/11/04 16:24:03;;;;;;;18.40;11.80;;;;;;;11.52;74.36;98889.20;209909;1291;141155;-64
2022/11/04 16:29:34;;;;;;;16.70;8.70;;;;;;;11.54;74.44;98890.86;210092;1280;140734;-64
2022/11/04 16:34:39;;;;;;;22.90;14.60;;;;;;;11.52;74.33;98891.60;210131;1295;140319;-64
2022/11/04 16:39:44;;;;;;;19.20;14.40;;;;;;;11.52;74.53;98892.56;210060;1277;140325;-68
2022/11/04 16:44:50;;;;;;;24.60;15.90;;;;;;;11.53;74.35;98892.98;209930;1296;140230;-64
2022/11/04 16:49:58;;;;;;;16.50;10.90;;;;;;;11.57;74.41;98893.81;210065;1287;140982;-64
2022/11/04 16:55:01;;;;;;;21.90;14.60;;;;;;;11.54;74.33;98898.06;210106;1293;140480;-67
2022/11/04 17:00:05;;;;;;;21.30;13.90;;;;;;;11.52;74.46;98893.25;209622;1295;141354;-64
2022/11/04 17:05:11;;;;;;;20.00;12.60;;;;;;;11.47;74.24;98896.02;209788;1297;140769;-71
2022/11/04 17:10:22;;;;;;;22.80;15.00;;;;;;;11.42;74.59;98893.05;209808;1290;142229;-73
2022/11/04 17:15:26;;;;;;;18.40;13.50;;;;;;;11.40;74.74;98889.30;209924;1296;141653;-71
2022/11/04 17:20:31;;;;;;;23.80;15.10;;;;;;;11.35;74.79;98890.02;209987;1296;140661;-69
2022/11/04 17:25:36;;;;;;;35.30;18.90;;;;;;;11.30;74.84;98887.99;209833;1297;140823;-68
2022/11/04 17:30:41;;;;;;;42.10;23.20;;;;;;;11.32;75.08;98882.80;209389;1297;140560;-69
2022/11/04 17:35:49;;;;;;;36.40;22.10;;;;;;;11.39;75.27;98884.76;206682;1296;140583;-70
2022/11/04 17:46:34;;;;;;;24.90;17.20;;;;;;;11.35;75.49;98878.91;206575;1298;141873;-71
2022/11/04 17:51:44;;;;;;;28.50;17.40;;;;;;;11.40;75.81;98867.20;206783;1303;141837;-69
2022/11/04 17:56:48;;;;;;;32.60;18.40;;;;;;;11.43;75.72;98868.83;208297;1303;140082;-66
2022/11/04 18:01:52;;;;;;;27.80;18.40;;;;;;;11.45;75.66;98877.38;207171;1303;141528;-65
2022/11/04 18:06:57;;;;;;;36.40;20.40;;;;;;;11.48;76.06;98877.65;207653;1287;140449;-69
2022/11/04 18:17:29;;;;;;;40.40;22.80;;;;;;;11.50;76.22;98864.42;209950;1296;223642;-66
2022/11/04 18:22:37;;;;;;;38.60;23.80;;;;;;;11.49;76.17;98871.04;209891;1297;141947;-69
2022/11/04 18:27:47;;;;;;;35.60;22.60;;;;;;;11.51;76.16;98859.83;209176;1280;868435;-69
2022/11/04 18:32:54;;;;;;;39.30;23.50;;;;;;;11.50;76.41;98841.79;209132;1296;141352;-68
2022/11/04 18:38:00;;;;;;;24.10;18.30;;;;;;;11.45;76.50;98836.01;209873;1302;142237;-68
2022/11/04 18:43:08;;;;;;;22.40;17.70;;;;;;;11.40;76.22;98842.70;209855;1296;224246;-69
2022/11/04 18:48:16;;;;;;;23.80;17.30;;;;;;;11.39;76.32;98843.94;209920;1288;224577;-68
2022/11/04 18:53:23;;;;;;;29.80;18.20;;;;;;;11.40;76.32;98842.50;209942;1297;142859;-68
2022/11/04 18:58:37;;;;;;;29.60;18.70;;;;;;;11.40;76.54;98834.91;210041;1296;236859;-68
2022/11/04 19:03:49;;;;;;;25.90;16.90;;;;;;;11.37;76.60;98834.95;210024;1297;139618;-68
2022/11/04 19:09:00;;;;;;;19.80;13.80;;;;;;;11.35;76.58;98831.27;210000;1303;139987;-68
2022/11/04 19:14:29;;;;;;;25.00;15.90;;;;;;;11.36;76.48;98829.45;209976;1293;223705;-68
2022/11/04 19:19:35;;;;;;;21.40;14.90;;;;;;;11.37;76.43;98824.66;209980;1296;141556;-68
2022/11/04 19:24:40;;;;;;;24.40;14.20;;;;;;;11.37;76.70;98829.04;210169;1297;139572;-68
2022/11/04 19:29:45;;;;;;;23.80;15.20;;;;;;;11.34;76.64;98832.11;209967;1297;140601;-68
2022/11/04 19:34:49;;;;;;;23.30;15.90;;;;;;;11.36;76.55;98828.70;210104;1296;141004;-68
2022/11/04 19:39:54;;;;;;;24.60;15.90;;;;;;;11.37;76.20;98827.54;210041;1295;140055;-69
2022/11/04 19:44:59;;;;;;;23.90;14.70;;;;;;;11.38;76.55;98834.21;209855;1296;140217;-69
2022/11/04 19:50:04;;;;;;;30.80;17.50;;;;;;;11.33;76.32;98834.03;209905;1297;141503;-68
2022/11/04 19:55:10;;;;;;;29.60;16.30;;;;;;;11.29;76.27;98831.70;207749;1297;141095;-69
2022/11/04 20:00:14;;;;;;;24.50;14.60;;;;;;;11.29;76.13;98831.70;209687;1296;140502;-68
2022/11/04 20:05:19;;;;;;;26.50;17.10;;;;;;;11.27;76.09;98828.42;210156;1295;141804;-69
2022/11/04 20:10:24;;;;;;;27.50;15.80;;;;;;;11.26;76.25;98826.23;210060;1296;140083;-68
2022/11/04 20:15:29;;;;;;;28.90;15.90;;;;;;;11.22;76.26;98832.98;210089;1296;140555;-67
2022/11/04 20:20:35;;;;;;;35.30;17.80;;;;;;;11.12;75.68;98842.38;209030;1295;142374;-67
2022/11/04 20:25:41;;;;;;;27.10;17.20;;;;;;;11.05;75.97;98841.97;209964;1295;140633;-68
2022/11/04 20:30:45;;;;;;;23.00;15.20;;;;;;;11.06;76.05;98849.55;210089;1301;142165;-68
2022/11/04 20:35:50;;;;;;;28.90;15.50;;;;;;;10.97;75.86;98850.79;209887;1287;141629;-68
2022/11/04 20:40:54;;;;;;;28.70;16.80;;;;;;;10.93;76.44;98856.21;209666;1297;142205;-68
2022/11/04 20:46:08;;;;;;;25.70;15.80;;;;;;;10.94;76.48;98851.85;209406;1296;143468;-68
2022/11/04 20:51:15;;;;;;;28.80;18.00;;;;;;;10.85;76.41;98848.91;210080;1296;140907;-68
2022/11/04 20:56:19;;;;;;;29.40;18.20;;;;;;;10.72;76.64;98848.30;209994;1295;140448;-68
2022/11/04 21:01:31;;;;;;;26.20;17.80;;;;;;;10.65;76.80;98843.78;209956;1297;140950;-68
2022/11/04 21:06:38;;;;;;;28.90;15.50;;;;;;;10.63;77.10;98842.80;210103;1296;141853;-68
2022/11/04 21:11:42;;;;;;;25.10;16.80;;;;;;;10.57;77.38;98835.94;210160;1296;141037;-68
2022/11/04 21:16:47;;;;;;;23.50;16.40;;;;;;;10.55;77.50;98837.20;210257;1297;140159;-68
2022/11/04 21:21:51;;;;;;;22.00;16.10;;;;;;;10.53;77.59;98845.40;210039;1287;142007;-68
2022/11/04 21:26:57;;;;;;;25.70;17.00;;;;;;;10.57;77.98;98838.29;210013;1301;143053;-68
2022/11/04 21:32:01;;;;;;;25.00;16.10;;;;;;;10.59;77.94;98838.95;209928;1297;141799;-68
2022/11/04 21:37:05;;;;;;;26.60;16.30;;;;;;;10.56;77.94;98845.42;210044;1297;141217;-68
2022/11/04 21:42:09;;;;;;;25.90;17.20;;;;;;;10.52;77.96;98837.23;210153;1296;141427;-67
2022/11/04 21:47:13;;;;;;;23.20;14.80;;;;;;;10.43;77.77;98840.52;210302;1293;141925;-67
2022/11/04 21:52:17;;;;;;;22.80;13.30;;;;;;;10.29;77.91;98848.95;209838;1297;142274;-67
2022/11/04 21:57:21;;;;;;;23.40;15.20;;;;;;;10.18;78.06;98863.64;209905;1295;141035;-67
2022/11/04 22:02:26;;;;;;;16.70;13.10;;;;;;;10.15;78.50;98854.81;208711;1290;140125;-67
2022/11/04 22:12:57;;;;;;;21.30;15.00;;;;;;;9.99;78.82;98857.77;206863;1288;140569;-68
2022/11/04 22:18:01;;;;;;;41.00;20.80;;;;;;;9.82;79.08;98849.45;206652;1288;141815;-69
2022/11/04 22:23:05;;;;;;;42.40;18.40;;;;;;;9.74;79.52;98845.02;208510;1295;140800;-70
2022/11/04 22:28:09;;;;;;;29.50;17.10;;;;;;;9.69;79.75;98843.90;207444;1294;140326;-69
2022/11/04 22:33:13;;;;;;;23.10;14.30;;;;;;;9.60;79.91;98849.60;208018;1295;140317;-70
2022/11/04 22:38:17;;;;;;;20.70;13.50;;;;;;;9.54;80.30;98847.08;210060;1293;153575;-70
2022/11/04 22:43:23;;;;;;;22.00;15.70;;;;;;;9.52;80.38;98846.52;209826;1303;141665;-70
2022/11/04 22:48:27;;;;;;;21.30;14.50;;;;;;;9.51;80.60;98843.95;209792;1293;142670;-70
2022/11/04 22:53:30;;;;;;;33.30;18.00;;;;;;;9.49;80.79;98845.05;209952;1287;142578;-70
2022/11/04 22:58:34;;;;;;;26.00;15.50;;;;;;;9.46;81.02;98845.40;208765;1296;141700;-69
2022/11/04 23:03:39;;;;;;;25.10;15.50;;;;;;;9.41;81.24;98851.73;206663;1293;140902;-68
2022/11/04 23:08:46;;;;;;;27.00;15.60;;;;;;;9.36;81.46;98851.46;206823;1288;140356;-68
2022/11/04 23:19:24;;;;;;;21.80;13.60;;;;;;;9.41;82.10;98856.89;209941;1304;140933;-68
2022/11/04 23:30:21;;;;;;;27.70;16.60;;;;;;;9.47;82.56;98849.77;210025;1305;140590;-68
